sensor_id;sensor_type;location;lat;lon;timestamp;pressure;altitude;pressure_sealevel;temperature;humidity
24666;BME280;29726;53.532;-1.478;2023-07-28T00:04:03;99279.16;;;23.44;nan
24666;BME280;29726;53.532;-1.478;2023-07-28T00:06:51;99290.97;;;23.41;nan
24666;BME280;29726;53.532;-1.478;2023-07-28T00:09:35;99285.34;;;23.33;nan
24666;BME280;29726;53.532;-1.478;2023-07-28T00:12:19;99289.13;;;23.36;nan
24666;BME280;29726;53.532;-1.478;2023-07-28T00:15:03;99288.97;;;23.34;nan
24666;BME280;29726;53.532;-1.478;2023-07-28T00:17:47;99290.72;;;23.29;nan
24666;BME280;29726;53.532;-1.478;2023-07-28T00:20:31;99289.94;;;23.29;nan
24666;BME280;29726;53.532;-1.478;2023-07-28T00:23:15;99274.47;;;23.22;nan
24666;BME280;29726;53.532;-1.478;2023-07-28T00:25:59;99295.31;;;23.25;nan
24666;BME280;29726;53.532;-1.478;2023-07-28T00:28:43;99272.59;;;23.17;nan
24666;BME280;29726;53.532;-1.478;2023-07-28T00:31:27;99288.94;;;23.17;nan
24666;BME280;29726;53.532;-1.478;2023-07-28T00:34:11;99246.16;;;23.00;nan
24666;BME280;29726;53.532;-1.478;2023-07-28T00:36:55;99288.59;;;23.13;nan
24666;BME280;29726;53.532;-1.478;2023-07-28T00:39:39;99272.72;;;23.02;nan
24666;BME280;29726;53.532;-1.478;2023-07-28T00:42:23;99290.88;;;23.07;nan
24666;BME280;29726;53.532;-1.478;2023-07-28T00:45:07;99278.06;;;22.98;nan
24666;BME280;29726;53.532;-1.478;2023-07-28T00:47:51;99296.66;;;22.99;nan
24666;BME280;29726;53.532;-1.478;2023-07-28T00:50:35;99291.03;;;22.92;nan
24666;BME280;29726;53.532;-1.478;2023-07-28T00:53:21;99274.69;;;22.92;nan
24666;BME280;29726;53.532;-1.478;2023-07-28T00:56:07;99285.00;;;22.88;nan
24666;BME280;29726;53.532;-1.478;2023-07-28T00:58:51;99277.84;;;22.79;nan
24666;BME280;29726;53.532;-1.478;2023-07-28T01:01:35;99289.91;;;22.87;nan
24666;BME280;29726;53.532;-1.478;2023-07-28T01:04:19;99277.09;;;22.79;nan
24666;BME280;29726;53.532;-1.478;2023-07-28T01:07:10;99285.78;;;22.81;nan
24666;BME280;29726;53.532;-1.478;2023-07-28T01:12:47;99287.38;;;22.74;nan
24666;BME280;29726;53.532;-1.478;2023-07-28T01:15:31;99274.13;;;22.69;nan
24666;BME280;29726;53.532;-1.478;2023-07-28T01:18:15;99306.81;;;22.61;nan
24666;BME280;29726;53.532;-1.478;2023-07-28T01:21:03;99288.59;;;22.64;nan
24666;BME280;29726;53.532;-1.478;2023-07-28T01:26:56;99297.53;;;22.60;nan
24666;BME280;29726;53.532;-1.478;2023-07-28T01:29:41;99295.09;;;22.57;nan
24666;BME280;29726;53.532;-1.478;2023-07-28T01:35:09;99255.84;;;22.23;nan
24666;BME280;29726;53.532;-1.478;2023-07-28T01:37:53;99276.63;;;22.41;nan
24666;BME280;29726;53.532;-1.478;2023-07-28T01:40:37;99299.72;;;22.45;nan
24666;BME280;29726;53.532;-1.478;2023-07-28T01:43:21;99296.72;;;22.43;nan
24666;BME280;29726;53.532;-1.478;2023-07-28T01:46:05;99287.22;;;22.40;nan
24666;BME280;29726;53.532;-1.478;2023-07-28T01:48:49;99281.56;;;22.33;nan
24666;BME280;29726;53.532;-1.478;2023-07-28T01:51:33;99293.72;;;22.33;nan
24666;BME280;29726;53.532;-1.478;2023-07-28T01:54:17;99299.41;;;22.33;nan
24666;BME280;29726;53.532;-1.478;2023-07-28T01:57:01;99291.06;;;22.28;nan
24666;BME280;29726;53.532;-1.478;2023-07-28T01:59:45;99286.53;;;22.25;nan
24666;BME280;29726;53.532;-1.478;2023-07-28T02:02:29;99295.47;;;22.21;nan
24666;BME280;29726;53.532;-1.478;2023-07-28T02:05:13;99315.41;;;22.14;nan
24666;BME280;29726;53.532;-1.478;2023-07-28T02:07:57;99300.22;;;22.19;nan
24666;BME280;29726;53.532;-1.478;2023-07-28T02:10:42;99296.44;;;22.16;nan
24666;BME280;29726;53.532;-1.478;2023-07-28T02:16:10;99283.03;;;22.09;nan
24666;BME280;29726;53.532;-1.478;2023-07-28T02:18:54;99292.72;;;22.06;nan
24666;BME280;29726;53.532;-1.478;2023-07-28T02:21:38;99276.09;;;21.96;nan
24666;BME280;29726;53.532;-1.478;2023-07-28T02:24:22;99259.09;;;21.81;nan
24666;BME280;29726;53.532;-1.478;2023-07-28T02:27:06;99291.59;;;22.02;nan
24666;BME280;29726;53.532;-1.478;2023-07-28T02:29:50;99264.75;;;21.88;nan
24666;BME280;29726;53.532;-1.478;2023-07-28T02:38:02;99272.31;;;21.93;nan
24666;BME280;29726;53.532;-1.478;2023-07-28T02:40:46;99276.13;;;21.88;nan
24666;BME280;29726;53.532;-1.478;2023-07-28T02:43:30;99277.63;;;21.89;nan
24666;BME280;29726;53.532;-1.478;2023-07-28T02:46:14;99274.25;;;21.83;nan
24666;BME280;29726;53.532;-1.478;2023-07-28T02:48:58;99279.94;;;21.83;nan
24666;BME280;29726;53.532;-1.478;2023-07-28T02:51:42;99276.34;;;21.83;nan
24666;BME280;29726;53.532;-1.478;2023-07-28T02:54:26;99264.59;;;21.79;nan
24666;BME280;29726;53.532;-1.478;2023-07-28T02:57:10;99237.94;;;21.67;nan
24666;BME280;29726;53.532;-1.478;2023-07-28T03:02:38;99286.44;;;21.69;nan
24666;BME280;29726;53.532;-1.478;2023-07-28T03:05:22;99248.97;;;21.63;nan
24666;BME280;29726;53.532;-1.478;2023-07-28T03:08:06;99254.22;;;21.66;nan
24666;BME280;29726;53.532;-1.478;2023-07-28T03:10:50;99251.22;;;21.64;nan
24666;BME280;29726;53.532;-1.478;2023-07-28T03:13:34;99271.28;;;21.66;nan
24666;BME280;29726;53.532;-1.478;2023-07-28T03:16:18;99270.53;;;21.66;nan
24666;BME280;29726;53.532;-1.478;2023-07-28T03:19:02;99230.44;;;21.39;nan
24666;BME280;29726;53.532;-1.478;2023-07-28T03:24:30;99260.31;;;21.55;nan
24666;BME280;29726;53.532;-1.478;2023-07-28T03:27:14;99251.63;;;21.53;nan
24666;BME280;29726;53.532;-1.478;2023-07-28T03:29:58;99249.34;;;21.52;nan
24666;BME280;29726;53.532;-1.478;2023-07-28T03:32:42;99273.38;;;21.51;nan
24666;BME280;29726;53.532;-1.478;2023-07-28T03:35:26;99256.94;;;21.42;nan
24666;BME280;29726;53.532;-1.478;2023-07-28T03:38:09;99270.19;;;21.47;nan
24666;BME280;29726;53.532;-1.478;2023-07-28T03:40:54;99265.66;;;21.36;nan
24666;BME280;29726;53.532;-1.478;2023-07-28T03:43:40;99273.44;;;21.36;nan
24666;BME280;29726;53.532;-1.478;2023-07-28T03:46:25;99261.13;;;21.33;nan
24666;BME280;29726;53.532;-1.478;2023-07-28T03:49:08;99277.38;;;21.40;nan
24666;BME280;29726;53.532;-1.478;2023-07-28T03:54:37;99281.19;;;21.35;nan
24666;BME280;29726;53.532;-1.478;2023-07-28T03:57:21;99278.91;;;21.34;nan
24666;BME280;29726;53.532;-1.478;2023-07-28T04:05:36;99269.84;;;21.20;nan
24666;BME280;29726;53.532;-1.478;2023-07-28T04:08:20;99269.13;;;21.20;nan
24666;BME280;29726;53.532;-1.478;2023-07-28T04:11:04;99268.75;;;21.23;nan
24666;BME280;29726;53.532;-1.478;2023-07-28T04:13:47;99264.94;;;21.21;nan
24666;BME280;29726;53.532;-1.478;2023-07-28T04:16:31;99253.59;;;21.13;nan
24666;BME280;29726;53.532;-1.478;2023-07-28T04:19:16;99266.66;;;21.16;nan
24666;BME280;29726;53.532;-1.478;2023-07-28T04:22:00;99269.50;;;21.16;nan
24666;BME280;29726;53.532;-1.478;2023-07-28T04:24:44;99275.56;;;21.13;nan
24666;BME280;29726;53.532;-1.478;2023-07-28T04:27:28;99289.53;;;21.11;nan
24666;BME280;29726;53.532;-1.478;2023-07-28T04:30:12;99284.47;;;21.09;nan
24666;BME280;29726;53.532;-1.478;2023-07-28T04:32:56;99249.09;;;20.80;nan
24666;BME280;29726;53.532;-1.478;2023-07-28T04:35:40;99271.78;;;20.95;nan
24666;BME280;29726;53.532;-1.478;2023-07-28T04:38:24;99283.91;;;21.03;nan
24666;BME280;29726;53.532;-1.478;2023-07-28T04:41:08;99276.72;;;21.02;nan
24666;BME280;29726;53.532;-1.478;2023-07-28T04:43:52;99277.66;;;20.97;nan
24666;BME280;29726;53.532;-1.478;2023-07-28T04:46:37;99270.66;;;20.98;nan
24666;BME280;29726;53.532;-1.478;2023-07-28T04:52:05;99271.78;;;20.95;nan
24666;BME280;29726;53.532;-1.478;2023-07-28T04:54:49;99264.22;;;20.90;nan
24666;BME280;29726;53.532;-1.478;2023-07-28T04:57:33;99270.09;;;20.92;nan
24666;BME280;29726;53.532;-1.478;2023-07-28T05:00:17;99271.41;;;20.91;nan
24666;BME280;29726;53.532;-1.478;2023-07-28T05:03:01;99232.63;;;20.64;nan
24666;BME280;29726;53.532;-1.478;2023-07-28T05:05:45;99256.28;;;20.81;nan
24666;BME280;29726;53.532;-1.478;2023-07-28T05:08:29;99267.25;;;20.85;nan
24666;BME280;29726;53.532;-1.478;2023-07-28T05:13:57;99263.84;;;20.86;nan
24666;BME280;29726;53.532;-1.478;2023-07-28T05:16:41;99268.03;;;20.85;nan
24666;BME280;29726;53.532;-1.478;2023-07-28T05:19:25;99263.09;;;20.86;nan
24666;BME280;29726;53.532;-1.478;2023-07-28T05:22:09;99253.66;;;20.83;nan
24666;BME280;29726;53.532;-1.478;2023-07-28T05:24:53;99258.75;;;20.85;nan
24666;BME280;29726;53.532;-1.478;2023-07-28T05:27:37;99257.78;;;20.82;nan
24666;BME280;29726;53.532;-1.478;2023-07-28T05:30:22;99259.31;;;20.83;nan
24666;BME280;29726;53.532;-1.478;2023-07-28T05:33:05;99257.78;;;20.82;nan
24666;BME280;29726;53.532;-1.478;2023-07-28T05:35:59;99257.78;;;20.82;nan
24666;BME280;29726;53.532;-1.478;2023-07-28T05:38:43;99269.91;;;20.83;nan
24666;BME280;29726;53.532;-1.478;2023-07-28T05:44:12;99263.47;;;20.82;nan
24666;BME280;29726;53.532;-1.478;2023-07-28T05:46:56;99268.75;;;20.78;nan
24666;BME280;29726;53.532;-1.478;2023-07-28T05:49:40;99244.91;;;20.74;nan
24666;BME280;29726;53.532;-1.478;2023-07-28T05:52:24;99266.50;;;20.84;nan
24666;BME280;29726;53.532;-1.478;2023-07-28T05:55:08;99258.53;;;20.75;nan
24666;BME280;29726;53.532;-1.478;2023-07-28T05:57:52;99247.56;;;20.72;nan
24666;BME280;29726;53.532;-1.478;2023-07-28T06:00:38;99260.63;;;20.82;nan
24666;BME280;29726;53.532;-1.478;2023-07-28T06:03:23;99262.16;;;20.83;nan
24666;BME280;29726;53.532;-1.478;2023-07-28T06:06:07;99257.00;;;20.82;nan
24666;BME280;29726;53.532;-1.478;2023-07-28T06:08:51;99267.25;;;20.85;nan
24666;BME280;29726;53.532;-1.478;2023-07-28T06:11:35;99269.53;;;20.86;nan
24666;BME280;29726;53.532;-1.478;2023-07-28T06:14:19;99269.53;;;20.86;nan
24666;BME280;29726;53.532;-1.478;2023-07-28T06:17:03;99256.28;;;20.81;nan
24666;BME280;29726;53.532;-1.478;2023-07-28T06:19:47;99271.03;;;20.87;nan
24666;BME280;29726;53.532;-1.478;2023-07-28T06:22:31;99223.00;;;20.59;nan
24666;BME280;29726;53.532;-1.478;2023-07-28T06:25:15;99231.28;;;20.72;nan
24666;BME280;29726;53.532;-1.478;2023-07-28T06:27:59;99253.66;;;20.83;nan
24666;BME280;29726;53.532;-1.478;2023-07-28T06:30:44;99259.31;;;20.91;nan
24666;BME280;29726;53.532;-1.478;2023-07-28T06:33:28;99253.66;;;20.91;nan
24666;BME280;29726;53.532;-1.478;2023-07-28T06:36:12;99244.19;;;20.88;nan
24666;BME280;29726;53.532;-1.478;2023-07-28T06:38:56;99238.13;;;20.84;nan
24666;BME280;29726;53.532;-1.478;2023-07-28T06:41:40;99251.56;;;20.91;nan
24666;BME280;29726;53.532;-1.478;2023-07-28T06:44:24;99247.97;;;20.91;nan
24666;BME280;29726;53.532;-1.478;2023-07-28T06:47:08;99253.25;;;20.94;nan
24666;BME280;29726;53.532;-1.478;2023-07-28T06:49:52;99240.78;;;20.90;nan
24666;BME280;29726;53.532;-1.478;2023-07-28T06:52:36;99250.59;;;20.96;nan
24666;BME280;29726;53.532;-1.478;2023-07-28T06:58:05;99255.53;;;21.03;nan
24666;BME280;29726;53.532;-1.478;2023-07-28T07:00:50;99245.31;;;21.00;nan
24666;BME280;29726;53.532;-1.478;2023-07-28T07:06:18;99257.22;;;21.06;nan
24666;BME280;29726;53.532;-1.478;2023-07-28T07:09:02;99228.66;;;20.97;nan
24666;BME280;29726;53.532;-1.478;2023-07-28T07:11:47;99251.13;;;21.10;nan
24666;BME280;29726;53.532;-1.478;2023-07-28T07:14:31;99245.28;;;21.08;nan
24666;BME280;29726;53.532;-1.478;2023-07-28T07:19:59;99244.91;;;21.11;nan
24666;BME280;29726;53.532;-1.478;2023-07-28T07:22:43;99254.75;;;21.18;nan
24666;BME280;29726;53.532;-1.478;2023-07-28T07:25:27;99252.81;;;21.20;nan
24666;BME280;29726;53.532;-1.478;2023-07-28T07:28:11;99243.75;;;21.14;nan
24666;BME280;29726;53.532;-1.478;2023-07-28T07:33:39;99251.31;;;21.27;nan
24666;BME280;29726;53.532;-1.478;2023-07-28T07:36:23;99255.84;;;21.30;nan
24666;BME280;29726;53.532;-1.478;2023-07-28T07:39:07;99260.00;;;21.36;nan
24666;BME280;29726;53.532;-1.478;2023-07-28T07:41:51;99264.53;;;21.39;nan
24666;BME280;29726;53.532;-1.478;2023-07-28T07:44:35;99241.47;;;21.28;nan
24666;BME280;29726;53.532;-1.478;2023-07-28T07:50:04;99267.53;;;21.49;nan
24666;BME280;29726;53.532;-1.478;2023-07-28T07:52:48;99264.13;;;21.50;nan
24666;BME280;29726;53.532;-1.478;2023-07-28T07:55:33;99287.22;;;21.54;nan
24666;BME280;29726;53.532;-1.478;2023-07-28T07:58:17;99274.69;;;21.57;nan
24666;BME280;29726;53.532;-1.478;2023-07-28T08:01:02;99294.00;;;21.66;nan
24666;BME280;29726;53.532;-1.478;2023-07-28T08:03:46;99285.66;;;21.68;nan
24666;BME280;29726;53.532;-1.478;2023-07-28T08:06:30;99288.72;;;21.70;nan
24666;BME280;29726;53.532;-1.478;2023-07-28T08:09:14;99283.03;;;21.70;nan
24666;BME280;29726;53.532;-1.478;2023-07-28T08:14:43;99292.44;;;21.80;nan
24666;BME280;29726;53.532;-1.478;2023-07-28T08:17:29;99275.41;;;21.80;nan
24666;BME280;29726;53.532;-1.478;2023-07-28T08:20:13;99285.25;;;21.79;nan
24666;BME280;29726;53.532;-1.478;2023-07-28T08:22:57;99284.28;;;21.84;nan
24666;BME280;29726;53.532;-1.478;2023-07-28T08:25:41;99291.66;;;21.87;nan
24666;BME280;29726;53.532;-1.478;2023-07-28T08:28:25;99357.00;;;21.87;nan
24666;BME280;29726;53.532;-1.478;2023-07-28T08:31:09;99303.34;;;21.98;nan
24666;BME280;29726;53.532;-1.478;2023-07-28T08:33:53;99284.78;;;21.98;nan
24666;BME280;29726;53.532;-1.478;2023-07-28T08:36:37;99282.53;;;21.96;nan
24666;BME280;29726;53.532;-1.478;2023-07-28T08:39:21;99284.56;;;22.03;nan
24666;BME280;29726;53.532;-1.478;2023-07-28T08:42:05;99286.25;;;22.06;nan
24666;BME280;29726;53.532;-1.478;2023-07-28T08:50:20;99290.75;;;22.16;nan
24666;BME280;29726;53.532;-1.478;2023-07-28T08:55:49;99290.72;;;22.24;nan
24666;BME280;29726;53.532;-1.478;2023-07-28T08:58:33;99286.34;;;22.30;nan
24666;BME280;29726;53.532;-1.478;2023-07-28T09:04:12;99264.31;;;22.38;nan
24666;BME280;29726;53.532;-1.478;2023-07-28T09:06:56;99277.53;;;22.43;nan
24666;BME280;29726;53.532;-1.478;2023-07-28T09:12:24;99311.47;;;22.49;nan
24666;BME280;29726;53.532;-1.478;2023-07-28T09:15:08;99268.19;;;22.50;nan
24666;BME280;29726;53.532;-1.478;2023-07-28T09:17:53;99291.63;;;22.66;nan
24666;BME280;29726;53.532;-1.478;2023-07-28T09:20:39;99285.09;;;22.73;nan
24666;BME280;29726;53.532;-1.478;2023-07-28T09:23:30;99308.22;;;22.77;nan
24666;BME280;29726;53.532;-1.478;2023-07-28T09:26:15;99287.59;;;22.93;nan
24666;BME280;29726;53.532;-1.478;2023-07-28T09:28:59;99283.00;;;22.98;nan
24666;BME280;29726;53.532;-1.478;2023-07-28T09:31:44;99294.31;;;23.05;nan
24666;BME280;29726;53.532;-1.478;2023-07-28T09:34:29;99293.91;;;23.09;nan
24666;BME280;29726;53.532;-1.478;2023-07-28T09:37:13;99306.19;;;23.19;nan
24666;BME280;29726;53.532;-1.478;2023-07-28T09:39:58;99257.56;;;23.00;nan
24666;BME280;29726;53.532;-1.478;2023-07-28T09:42:44;99297.50;;;23.34;nan
24666;BME280;29726;53.532;-1.478;2023-07-28T09:45:34;99295.16;;;23.40;nan
24666;BME280;29726;53.532;-1.478;2023-07-28T09:48:21;99298.34;;;23.44;nan
24666;BME280;29726;53.532;-1.478;2023-07-28T09:51:12;99303.03;;;23.49;nan
24666;BME280;29726;53.532;-1.478;2023-07-28T09:56:45;99306.22;;;23.53;nan
24666;BME280;29726;53.532;-1.478;2023-07-28T09:59:38;99310.94;;;23.58;nan
24666;BME280;29726;53.532;-1.478;2023-07-28T10:02:22;99309.00;;;23.60;nan
24666;BME280;29726;53.532;-1.478;2023-07-28T10:05:07;99316.53;;;23.65;nan
24666;BME280;29726;53.532;-1.478;2023-07-28T10:10:36;99326.00;;;23.68;nan
24666;BME280;29726;53.532;-1.478;2023-07-28T10:13:21;99329.03;;;23.70;nan
24666;BME280;29726;53.532;-1.478;2023-07-28T10:16:05;99313.44;;;23.71;nan
24666;BME280;29726;53.532;-1.478;2023-07-28T10:21:40;99313.19;;;23.76;nan
24666;BME280;29726;53.532;-1.478;2023-07-28T10:25:05;99331.22;;;23.78;nan
24666;BME280;29726;53.532;-1.478;2023-07-28T10:27:51;99334.97;;;23.81;nan
24666;BME280;29726;53.532;-1.478;2023-07-28T10:30:51;99331.59;;;23.83;nan
24666;BME280;29726;53.532;-1.478;2023-07-28T10:33:40;99322.44;;;23.84;nan
24666;BME280;29726;53.532;-1.478;2023-07-28T10:39:16;99328.47;;;23.88;nan
24666;BME280;29726;53.532;-1.478;2023-07-28T10:42:07;99313.63;;;23.89;nan
24666;BME280;29726;53.532;-1.478;2023-07-28T10:44:52;99317.50;;;23.84;nan
24666;BME280;29726;53.532;-1.478;2023-07-28T10:47:36;99315.13;;;23.90;nan
24666;BME280;29726;53.532;-1.478;2023-07-28T10:53:05;99321.16;;;23.94;nan
24666;BME280;29726;53.532;-1.478;2023-07-28T11:01:20;99317.03;;;24.05;nan
24666;BME280;29726;53.532;-1.478;2023-07-28T11:04:16;99321.72;;;24.10;nan
24666;BME280;29726;53.532;-1.478;2023-07-28T11:07:00;99323.69;;;24.07;nan
24666;BME280;29726;53.532;-1.478;2023-07-28T11:09:44;99322.50;;;24.10;nan
24666;BME280;29726;53.532;-1.478;2023-07-28T11:12:29;99310.75;;;24.06;nan
24666;BME280;29726;53.532;-1.478;2023-07-28T11:15:14;99330.03;;;24.15;nan
24666;BME280;29726;53.532;-1.478;2023-07-28T11:20:42;99317.13;;;24.14;nan
24666;BME280;29726;53.532;-1.478;2023-07-28T11:23:28;99309.91;;;24.13;nan
24666;BME280;29726;53.532;-1.478;2023-07-28T11:26:13;99304.19;;;24.13;nan
24666;BME280;29726;53.532;-1.478;2023-07-28T11:28:59;99321.63;;;24.17;nan
24666;BME280;29726;53.532;-1.478;2023-07-28T11:31:43;99323.16;;;24.18;nan
24666;BME280;29726;53.532;-1.478;2023-07-28T11:34:27;99317.44;;;24.18;nan
24666;BME280;29726;53.532;-1.478;2023-07-28T11:37:11;99317.75;;;24.22;nan
24666;BME280;29726;53.532;-1.478;2023-07-28T11:42:44;99298.31;;;24.28;nan
24666;BME280;29726;53.532;-1.478;2023-07-28T11:45:29;99298.31;;;24.28;nan
24666;BME280;29726;53.532;-1.478;2023-07-28T11:48:14;99294.56;;;24.35;nan
24666;BME280;29726;53.532;-1.478;2023-07-28T11:50:59;99285.59;;;24.39;nan
24666;BME280;29726;53.532;-1.478;2023-07-28T11:53:44;99274.91;;;24.39;nan
24666;BME280;29726;53.532;-1.478;2023-07-28T11:56:29;99273.72;;;24.42;nan
24666;BME280;29726;53.532;-1.478;2023-07-28T11:59:17;99268.41;;;24.56;nan
24666;BME280;29726;53.532;-1.478;2023-07-28T12:02:04;99273.13;;;24.61;nan
24666;BME280;29726;53.532;-1.478;2023-07-28T12:04:48;99284.41;;;24.68;nan
24666;BME280;29726;53.532;-1.478;2023-07-28T12:07:34;99287.91;;;24.76;nan
24666;BME280;29726;53.532;-1.478;2023-07-28T12:10:19;99287.19;;;24.85;nan
24666;BME280;29726;53.532;-1.478;2023-07-28T12:13:05;99290.50;;;24.91;nan
24666;BME280;29726;53.532;-1.478;2023-07-28T12:15:49;99277.25;;;24.86;nan
24666;BME280;29726;53.532;-1.478;2023-07-28T12:18:33;99282.72;;;25.01;nan
24666;BME280;29726;53.532;-1.478;2023-07-28T12:21:17;99284.84;;;25.10;nan
24666;BME280;29726;53.532;-1.478;2023-07-28T12:24:01;99274.34;;;25.13;nan
24666;BME280;29726;53.532;-1.478;2023-07-28T12:26:46;99288.81;;;25.24;nan
24666;BME280;29726;53.532;-1.478;2023-07-28T12:29:31;99276.19;;;25.27;nan
24666;BME280;29726;53.532;-1.478;2023-07-28T12:34:59;99277.56;;;25.36;nan
24666;BME280;29726;53.532;-1.478;2023-07-28T12:40:28;99302.41;;;25.52;nan
24666;BME280;29726;53.532;-1.478;2023-07-28T12:43:13;99291.25;;;25.56;nan
24666;BME280;29726;53.532;-1.478;2023-07-28T12:45:57;99295.34;;;25.62;nan
24666;BME280;29726;53.532;-1.478;2023-07-28T12:48:41;99278.19;;;25.62;nan
24666;BME280;29726;53.532;-1.478;2023-07-28T12:51:25;99279.84;;;25.75;nan
24666;BME280;29726;53.532;-1.478;2023-07-28T12:54:09;99264.94;;;25.76;nan
24666;BME280;29726;53.532;-1.478;2023-07-28T12:56:54;99275.50;;;25.83;nan
24666;BME280;29726;53.532;-1.478;2023-07-28T13:02:23;99284.81;;;25.93;nan
24666;BME280;29726;53.532;-1.478;2023-07-28T13:05:08;99254.25;;;25.77;nan
24666;BME280;29726;53.532;-1.478;2023-07-28T13:07:54;99283.75;;;25.98;nan
24666;BME280;29726;53.532;-1.478;2023-07-28T13:10:38;99284.97;;;26.05;nan
24666;BME280;29726;53.532;-1.478;2023-07-28T13:16:06;99283.00;;;26.07;nan
24666;BME280;29726;53.532;-1.478;2023-07-28T13:18:52;99299.09;;;26.22;nan
24666;BME280;29726;53.532;-1.478;2023-07-28T13:21:36;99295.63;;;26.23;nan
24666;BME280;29726;53.532;-1.478;2023-07-28T13:24:20;99297.44;;;26.28;nan
24666;BME280;29726;53.532;-1.478;2023-07-28T13:27:05;99288.69;;;26.26;nan
24666;BME280;29726;53.532;-1.478;2023-07-28T13:29:49;99300.44;;;26.30;nan
24666;BME280;29726;53.532;-1.478;2023-07-28T13:32:33;99310.22;;;26.37;nan
24666;BME280;29726;53.532;-1.478;2023-07-28T13:35:17;99266.56;;;26.17;nan
24666;BME280;29726;53.532;-1.478;2023-07-28T13:38:02;99310.50;;;26.41;nan
24666;BME280;29726;53.532;-1.478;2023-07-28T13:40:45;99301.00;;;26.38;nan
24666;BME280;29726;53.532;-1.478;2023-07-28T13:43:29;99289.72;;;26.40;nan
24666;BME280;29726;53.532;-1.478;2023-07-28T13:46:14;99295.13;;;26.46;nan
24666;BME280;29726;53.532;-1.478;2023-07-28T13:48:58;99303.56;;;26.44;nan
24666;BME280;29726;53.532;-1.478;2023-07-28T13:51:41;99300.06;;;26.45;nan
24666;BME280;29726;53.532;-1.478;2023-07-28T13:54:25;99275.41;;;26.31;nan
24666;BME280;29726;53.532;-1.478;2023-07-28T13:57:10;99331.91;;;26.59;nan
24666;BME280;29726;53.532;-1.478;2023-07-28T13:59:55;99314.72;;;26.59;nan
24666;BME280;29726;53.532;-1.478;2023-07-28T14:02:39;99315.00;;;26.63;nan
24666;BME280;29726;53.532;-1.478;2023-07-28T14:05:23;99323.72;;;26.65;nan
24666;BME280;29726;53.532;-1.478;2023-07-28T14:08:07;99317.09;;;26.62;nan
24666;BME280;29726;53.532;-1.478;2023-07-28T14:10:52;99307.59;;;26.69;nan
24666;BME280;29726;53.532;-1.478;2023-07-28T14:13:36;99292.66;;;26.71;nan
24666;BME280;29726;53.532;-1.478;2023-07-28T14:16:20;99288.16;;;26.68;nan
24666;BME280;29726;53.532;-1.478;2023-07-28T14:19:04;99300.16;;;26.76;nan
24666;BME280;29726;53.532;-1.478;2023-07-28T14:21:48;99298.53;;;26.73;nan
24666;BME280;29726;53.532;-1.478;2023-07-28T14:24:32;99297.78;;;26.72;nan
24666;BME280;29726;53.532;-1.478;2023-07-28T14:27:16;99307.22;;;26.84;nan
24666;BME280;29726;53.532;-1.478;2023-07-28T14:30:00;99311.72;;;26.87;nan
24666;BME280;29726;53.532;-1.478;2023-07-28T14:32:44;99307.34;;;26.86;nan
24666;BME280;29726;53.532;-1.478;2023-07-28T14:35:28;99311.25;;;26.91;nan
24666;BME280;29726;53.532;-1.478;2023-07-28T14:38:12;99292.84;;;26.94;nan
24666;BME280;29726;53.532;-1.478;2023-07-28T14:40:56;99292.84;;;26.94;nan
24666;BME280;29726;53.532;-1.478;2023-07-28T14:43:41;99284.88;;;26.92;nan
24666;BME280;29726;53.532;-1.478;2023-07-28T14:49:08;99278.94;;;27.00;nan
24666;BME280;29726;53.532;-1.478;2023-07-28T14:51:52;99301.25;;;27.11;nan
24666;BME280;29726;53.532;-1.478;2023-07-28T14:54:36;99295.53;;;27.11;nan
24666;BME280;29726;53.532;-1.478;2023-07-28T14:57:20;99288.28;;;27.10;nan
24666;BME280;29726;53.532;-1.478;2023-07-28T15:02:48;99295.31;;;27.18;nan
24666;BME280;29726;53.532;-1.478;2023-07-28T15:05:32;99289.78;;;27.11;nan
24666;BME280;29726;53.532;-1.478;2023-07-28T15:08:16;99292.59;;;27.20;nan
24666;BME280;29726;53.532;-1.478;2023-07-28T15:11:00;99290.59;;;27.23;nan
24666;BME280;29726;53.532;-1.478;2023-07-28T15:13:44;99287.88;;;27.25;nan
24666;BME280;29726;53.532;-1.478;2023-07-28T15:16:28;99278.69;;;27.26;nan
24666;BME280;29726;53.532;-1.478;2023-07-28T15:19:12;99272.19;;;27.26;nan
24666;BME280;29726;53.532;-1.478;2023-07-28T15:21:56;99268.72;;;27.27;nan
24666;BME280;29726;53.532;-1.478;2023-07-28T15:24:40;99260.88;;;27.28;nan
24666;BME280;29726;53.532;-1.478;2023-07-28T15:27:24;99267.94;;;27.27;nan
24666;BME280;29726;53.532;-1.478;2023-07-28T15:30:09;99265.50;;;27.33;nan
24666;BME280;29726;53.532;-1.478;2023-07-28T15:32:53;99264.00;;;27.32;nan
24666;BME280;29726;53.532;-1.478;2023-07-28T15:35:37;99258.41;;;27.34;nan
24666;BME280;29726;53.532;-1.478;2023-07-28T15:38:21;99257.78;;;27.35;nan
24666;BME280;29726;53.532;-1.478;2023-07-28T15:41:05;99237.78;;;27.26;nan
24666;BME280;29726;53.532;-1.478;2023-07-28T15:43:49;99248.31;;;27.33;nan
24666;BME280;29726;53.532;-1.478;2023-07-28T15:46:33;99236.56;;;27.29;nan
24666;BME280;29726;53.532;-1.478;2023-07-28T15:49:19;99239.06;;;27.34;nan
24666;BME280;29726;53.532;-1.478;2023-07-28T15:52:03;99249.63;;;27.41;nan
24666;BME280;29726;53.532;-1.478;2023-07-28T15:54:47;99250.97;;;27.40;nan
24666;BME280;29726;53.532;-1.478;2023-07-28T16:00:15;99248.84;;;27.40;nan
24666;BME280;29726;53.532;-1.478;2023-07-28T16:02:59;99244.34;;;27.38;nan
24666;BME280;29726;53.532;-1.478;2023-07-28T16:05:43;99208.44;;;27.37;nan
24666;BME280;29726;53.532;-1.478;2023-07-28T16:08:27;99248.13;;;27.40;nan
24666;BME280;29726;53.532;-1.478;2023-07-28T16:11:11;99248.13;;;27.40;nan
24666;BME280;29726;53.532;-1.478;2023-07-28T16:13:55;99261.34;;;27.45;nan
24666;BME280;29726;53.532;-1.478;2023-07-28T16:19:23;99253.84;;;27.40;nan
24666;BME280;29726;53.532;-1.478;2023-07-28T16:22:07;99258.34;;;27.43;nan
24666;BME280;29726;53.532;-1.478;2023-07-28T16:27:35;99246.13;;;27.42;nan
24666;BME280;29726;53.532;-1.478;2023-07-28T16:30:19;99244.63;;;27.41;nan
24666;BME280;29726;53.532;-1.478;2023-07-28T16:33:03;99254.56;;;27.40;nan
24666;BME280;29726;53.532;-1.478;2023-07-28T16:35:47;99260.31;;;27.40;nan
24666;BME280;29726;53.532;-1.478;2023-07-28T16:38:31;99239.72;;;27.33;nan
24666;BME280;29726;53.532;-1.478;2023-07-28T16:41:15;99252.94;;;27.38;nan
24666;BME280;29726;53.532;-1.478;2023-07-28T16:46:43;99225.84;;;27.29;nan